Atlantic, NC (28511)

12:38 AM EST on February 28, 2017 (GMT -0500)
Core Sound's 2 West Shore Heel of Rock Jetty | | Change Station

Elev 13 ft 34.80 °N, 76.46 °W | Updated 2 minutes ago

Partly Cloudy
Partly Cloudy
63.3 °F
Feels Like 63.3 °F
N
0.0
Wind Variable Wind from West
Gusts 1.0 mph

Today
High -- | Low -- °F
--% Chance of Precip.
Yesterday
High -- | Low -- °F
Precip. -- in
Pressure 30.33 in
Visibility 10.0 miles
Clouds Few 3800 ft
Dew Point 59 °F
Humidity 87%
Rainfall 0.00 in
Snow Depth Not available.
6:35 AM 6:00 PM
Waxing Crescent, 3% visible
METAR KMRH 280458Z AUTO 17006KT 10SM FEW038 18/14 A3032 RMK AO2 SLP269 T01830139 402060028 TSNO
Pressure 30.33 in
Visibility 10.0 miles
Clouds Few 3800 ft
Dew Point 59 °F
Humidity 87%
Rainfall 0.00 in
Snow Depth Not available.
6:35 AM 6:00 PM
Waxing Crescent, 3% visible
METAR KMRH 280458Z AUTO 17006KT 10SM FEW038 18/14 A3032 RMK AO2 SLP269 T01830139 402060028 TSNO

Get Your Daily Forecast Email!

Thanks for signing up!

Be on the lookout for a verification email in your inbox.

You'll start receiving the daily forecast at 8 AM.

×

10-Day Weather Forecast

Almanac

Astronomy

Feb. 28, 2017 Rise Set
Actual Time
Civil Twilight
Nautical Twilight
Astronomical Twilight
Moon
Length of Visible Light
Length of Day
Tomorrow will be .
, % of the Moon is Illuminated

Today's Extremes

State Highs State Lows

Community

WunderPhotos

Upload Photos

1,962,540 photos uploaded!

WunderBlog® & News

Nearby

Air Quality

  Air Quality AQ Index Pollutant
Not available.

Snow Depth

Station Depth Elevation

Earthquake Activity

City Distance Mag. Time & Date
Minimum magnitude displayed is 2.5.

Coastal Water Temperatures

Place Temperature

Stations

Nearby Weather Stations

Station Location Temp. Windchill Dew Point Humidity Wind Precip. Elev Updated Type
                   

Watches & Warnings

There are currently no watches in effect.